To NAV CANADA Home Page Login to a new session Search on AWWS site Disclaimer Vers la page française équivalente Tips FAQ What's new on the site To the Forecasts and Observations / NOTAM section To "File a Flight Plan" website Publications and other links Update of the User's profile FIC Telephone Numbers My Weather Data Folder Route Weather Data Regional Weather Data Local Weather Data To the Forecasts and Observations / NOTAM section
Request Generated 05/19/2019 at 14:32:01 UTC . Weather information available at that time is displayed.

METAR/TAF

If you find any discrepancies between the coded METAR/TAF and the plain language METAR/TAF please use the coded METAR/TAF. LWIS bulletins are not decoded in plain language.

TORONTO/BILLY BISHOP TORONTO CITY AIRPORT/ON    (show WxCam)

METAR CYTZ 191400Z AUTO 07011KT 9SM CLR 11/07 A2986 RMK SLP113=
METAR
LOCATION
CYTZ - TORONTO/BILLY BISHOP TORONTO CITY A
DATE - TIME
19 MAY 2019 - 1400 UTC
WIND
70 TRUE @ 11  KNOTS
VISIBILITY
9 STAT.  MILES
RUNWAY VISUAL RANGE
WEATHER
CLOUDINESS
CLEAR SKY
TEMP / DEWPOINT
11 C / 7 C
ALTIMETER
29.86 IN HG
RECENT WEATHER
WIND SHEAR

METAR CYTZ 191300Z AUTO 08011KT 9SM CLR 09/06 A2987 RMK SLP116=
METAR
LOCATION
CYTZ - TORONTO/BILLY BISHOP TORONTO CITY A
DATE - TIME
19 MAY 2019 - 1300 UTC
WIND
80 TRUE @ 11  KNOTS
VISIBILITY
9 STAT.  MILES
RUNWAY VISUAL RANGE
WEATHER
CLOUDINESS
CLEAR SKY
TEMP / DEWPOINT
9 C / 6 C
ALTIMETER
29.87 IN HG
RECENT WEATHER
WIND SHEAR

METAR CYTZ 191200Z AUTO 09008KT 9SM FEW095 10/06 A2987 RMK SLP116=
METAR
LOCATION
CYTZ - TORONTO/BILLY BISHOP TORONTO CITY A
DATE - TIME
19 MAY 2019 - 1200 UTC
WIND
90 TRUE @ 8  KNOTS
VISIBILITY
9 STAT.  MILES
RUNWAY VISUAL RANGE
WEATHER
CLOUDINESS
FEW CLOUDS (1/8 - 2/8) 9500  FT
TEMP / DEWPOINT
10 C / 6 C
ALTIMETER
29.87 IN HG
RECENT WEATHER
WIND SHEAR

TAF CYTZ 191338Z 1914/2014 08010KT P6SM SCT090 FM191500 11010KT P6SM SCT060 PROB30 1915/1918 2SM TSRA BR OVC050CB FM192200 08008KT P6SM -SHRA BKN060 PROB30 1922/2004 VRB15G25KT 11/2SM +TSRA BR OVC030CB FM200400 23010G20KT P6SM BKN060 TEMPO 2004/2009 P6SM -SHRA FM200900 22012KT P6SM BKN020 BECMG 2010/2012 25015G25KT RMK FCST BASED ON AUTO OBS. NXT FCST BY 192000Z=
TAF
LOCATION

CYTZ - TORONTO/BILLY BISHOP TORONTO CITY AIRPORT/ON
VALIDITY [UTC]
19 MAY - 1338 to
20 MAY - 1400
 
TIMES
[UTC]
WIND
[DEGREES TRUE]
VISIBILITY
[STAT. MILES]
WEATHER
CLOUDINESS
[FEET AGL]
 
19 MAY - 1400 to
19 MAY - 1500
80 @ 10 KNOTS
6+
NIL
9000 SCATTERED
 
19 MAY - 1500 to
19 MAY - 2200
110 @ 10 KNOTS
6+
NIL
6000 SCATTERED
30% PROBABILITY
19 MAY - 1500 to
19 MAY - 1800
 
2
MODERATE THUNDERSTORM WITH RAIN
MIST
5000 OVERCAST WITH CUMULONIMBUS
 
19 MAY - 2200 to
20 MAY - 0400
80 @ 8 KNOTS
6+
LIGHT RAIN SHOWER
6000 BROKEN
30% PROBABILITY
19 MAY - 2200 to
20 MAY - 0400
VARIABLE @ 15 KNOTS
GUSTS 25 KNOTS
1 1/2
HEAVY THUNDERSTORM WITH RAIN
MIST
3000 OVERCAST WITH CUMULONIMBUS
 
20 MAY - 0400 to
20 MAY - 0900
230 @ 10 KNOTS
GUSTS 20 KNOTS
6+
NIL
6000 BROKEN
TEMPORARY CHANGES
20 MAY - 0400 to
20 MAY - 0900
 
6+
LIGHT RAIN SHOWER
 
 
20 MAY - 0900 to
20 MAY - 1400
220 @ 12 KNOTS
6+
NIL
2000 BROKEN
BECOMING
20 MAY - 1000 to
20 MAY - 1200
250 @ 15 KNOTS
GUSTS 25 KNOTS
 
 
 
REMARKS
THE FORECAST IS BASED ON AUTOMATIC OBSERVATIONS - THE NEXT FORECAST WILL BE ISSUED BY 2000 UTC ON DAY 19


Your time UTC time
Weather data provided by Environment Canada and NAV CANADA